Time;durP1;ratioP1;P1;durP2;ratioP2;P2;SDS_P1;SDS_P2;PMS_P1;PMS_P2;Temp;Humidity;BMP_temperature;BMP_pressure;BME280_temperature;BME280_humidity;BME280_pressure;Samples;Min_cycle;Max_cycle;Signal;HPM_P1;HPM_P2
2021/04/27 00:01:55;;;;;;;2.72;1.88;;;15.20;99.90;;;;;;5067210;28;20487;-55
2021/04/27 00:04:20;;;;;;;2.97;2.30;;;15.30;99.90;;;;;;5067157;28;20063;-56
2021/04/27 00:06:47;;;;;;;3.17;2.05;;;15.40;99.90;;;;;;5067864;28;20074;-55
2021/04/27 00:09:12;;;;;;;4.15;2.45;;;15.40;99.90;;;;;;5067534;28;20506;-55
2021/04/27 00:11:38;;;;;;;4.22;2.40;;;15.40;99.90;;;;;;5066528;28;20020;-55
2021/04/27 00:14:07;;;;;;;3.75;2.25;;;15.40;99.90;;;;;;5067301;28;20100;-54
2021/04/27 00:16:34;;;;;;;4.18;2.53;;;15.50;99.90;;;;;;5066809;28;20082;-55
2021/04/27 00:19:00;;;;;;;2.80;2.17;;;15.40;99.90;;;;;;5067106;28;20571;-55
2021/04/27 00:21:28;;;;;;;5.88;2.60;;;15.40;99.90;;;;;;5066699;28;20028;-55
2021/04/27 00:23:54;;;;;;;3.05;2.28;;;15.40;99.90;;;;;;5067139;28;20400;-55
2021/04/27 00:26:21;;;;;;;4.20;2.35;;;15.40;99.90;;;;;;5066905;28;20375;-54
2021/04/27 00:28:48;;;;;;;3.53;2.55;;;15.40;99.90;;;;;;5067579;28;20021;-55
2021/04/27 00:31:14;;;;;;;5.90;3.08;;;15.30;99.90;;;;;;5066877;28;20029;-55
2021/04/27 00:33:41;;;;;;;3.38;2.50;;;15.40;99.90;;;;;;5066555;28;20036;-55
2021/04/27 00:36:07;;;;;;;2.53;2.33;;;15.10;99.90;;;;;;5066609;28;20105;-55
2021/04/27 00:38:32;;;;;;;3.88;2.55;;;15.00;99.90;;;;;;5066532;28;20041;-56
2021/04/27 00:40:59;;;;;;;4.68;2.70;;;15.00;99.90;;;;;;5067008;28;20066;-55
2021/04/27 00:43:26;;;;;;;3.63;2.60;;;15.10;99.90;;;;;;5066393;28;20090;-54
2021/04/27 00:45:51;;;;;;;5.18;2.72;;;15.20;99.90;;;;;;5066580;28;20055;-54
2021/04/27 00:48:17;;;;;;;3.45;2.40;;;15.20;99.90;;;;;;5067461;28;20530;-55
2021/04/27 00:50:43;;;;;;;3.92;2.70;;;15.30;99.90;;;;;;5066456;28;20494;-54
2021/04/27 00:53:10;;;;;;;4.80;2.65;;;15.30;99.90;;;;;;5066135;28;20482;-54
2021/04/27 00:55:37;;;;;;;2.78;2.47;;;15.30;99.90;;;;;;5066348;28;20589;-55
2021/04/27 00:58:04;;;;;;;3.40;2.60;;;15.30;99.90;;;;;;5066469;28;20040;-55
2021/04/27 01:00:32;;;;;;;3.17;2.70;;;15.30;99.90;;;;;;5065109;28;20103;-55
2021/04/27 01:02:59;;;;;;;5.47;2.95;;;15.20;99.90;;;;;;5066333;28;20059;-55
2021/04/27 01:05:26;;;;;;;4.25;2.85;;;15.20;99.90;;;;;;5066089;28;20398;-55
2021/04/27 01:08:10;;;;;;;4.95;2.97;;;15.20;99.90;;;;;;5066382;28;20032;-55
2021/04/27 01:11:01;;;;;;;3.83;2.75;;;15.00;99.90;;;;;;5065209;28;20418;-55
2021/04/27 01:13:56;;;;;;;6.30;2.97;;;15.00;99.90;;;;;;5065629;28;20505;-54
2021/04/27 01:16:22;;;;;;;3.63;2.92;;;15.20;99.90;;;;;;5064899;28;20031;-55
2021/04/27 01:18:53;;;;;;;3.22;2.67;;;15.20;99.90;;;;;;5066624;28;20360;-55
2021/04/27 01:21:21;;;;;;;3.30;2.55;;;15.10;99.90;;;;;;5066575;28;20028;-54
2021/04/27 01:24:02;;;;;;;4.28;3.13;;;15.10;99.90;;;;;;5066506;28;20074;-55
2021/04/27 01:26:33;;;;;;;3.55;2.75;;;15.20;99.90;;;;;;5065809;28;20078;-55
2021/04/27 01:28:59;;;;;;;4.05;3.05;;;15.20;99.90;;;;;;5065714;28;20046;-55
2021/04/27 01:31:26;;;;;;;5.45;2.88;;;15.10;99.90;;;;;;5065790;28;20070;-55
2021/04/27 01:33:52;;;;;;;3.17;2.40;;;15.00;99.90;;;;;;5065765;28;20035;-65
2021/04/27 01:36:18;;;;;;;3.47;2.45;;;15.00;99.90;;;;;;5066676;28;20048;-64
2021/04/27 01:38:44;;;;;;;4.05;2.78;;;15.00;99.90;;;;;;5065602;28;20464;-65
2021/04/27 01:41:10;;;;;;;4.68;2.97;;;14.90;99.90;;;;;;5065726;28;20028;-65
2021/04/27 01:43:36;;;;;;;3.95;2.88;;;14.90;99.90;;;;;;5065446;28;20034;-65
2021/04/27 01:46:05;;;;;;;3.45;2.50;;;14.80;99.90;;;;;;5065575;28;20027;-65
2021/04/27 01:48:34;;;;;;;4.28;2.67;;;14.90;99.90;;;;;;5065267;28;20052;-65
2021/04/27 01:51:00;;;;;;;2.90;2.45;;;14.90;99.90;;;;;;5065846;28;20142;-64
2021/04/27 01:53:27;;;;;;;4.63;2.90;;;14.90;99.90;;;;;;5064879;28;20039;-64
2021/04/27 01:55:54;;;;;;;3.45;2.58;;;14.90;99.90;;;;;;5065779;28;20116;-64
2021/04/27 01:58:20;;;;;;;3.20;2.63;;;14.90;99.90;;;;;;5065165;28;20028;-64
2021/04/27 02:00:46;;;;;;;3.60;2.47;;;14.80;99.90;;;;;;5066137;28;20086;-64
2021/04/27 02:03:11;;;;;;;6.15;3.65;;;14.60;99.90;;;;;;5065261;28;20100;-64
2021/04/27 02:05:38;;;;;;;4.07;2.72;;;14.60;99.90;;;;;;5065283;28;20107;-65
2021/04/27 02:08:05;;;;;;;4.35;2.60;;;14.60;99.90;;;;;;5065504;28;20024;-65
2021/04/27 02:10:32;;;;;;;3.80;2.45;;;14.60;99.90;;;;;;5064986;28;20120;-65
2021/04/27 02:13:05;;;;;;;5.45;3.28;;;14.70;99.90;;;;;;5066672;28;20418;-65
2021/04/27 02:15:31;;;;;;;4.15;2.67;;;14.70;99.90;;;;;;5069158;28;20020;-64
2021/04/27 02:18:09;;;;;;;3.40;2.20;;;14.60;99.90;;;;;;5069681;28;20082;-64
2021/04/27 02:20:35;;;;;;;5.60;3.28;;;14.50;99.90;;;;;;5069150;28;20024;-64
2021/04/27 02:23:02;;;;;;;3.42;2.40;;;14.40;99.90;;;;;;5069265;28;20528;-64
2021/04/27 02:25:29;;;;;;;4.05;3.13;;;14.30;99.90;;;;;;5069180;28;20021;-65
2021/04/27 02:27:56;;;;;;;3.75;2.70;;;14.40;99.90;;;;;;5069503;28;20035;-64
2021/04/27 02:30:24;;;;;;;4.03;2.78;;;14.40;99.90;;;;;;5069218;28;20071;-64
2021/04/27 02:32:50;;;;;;;4.47;2.75;;;14.40;99.90;;;;;;5069433;28;20108;-65
2021/04/27 02:35:18;;;;;;;3.08;2.72;;;14.30;99.90;;;;;;5070273;28;20056;-65
2021/04/27 02:37:46;;;;;;;4.47;2.78;;;14.40;99.90;;;;;;5068884;28;20032;-65
2021/04/27 02:40:15;;;;;;;3.80;3.00;;;14.30;99.90;;;;;;5068123;28;20115;-65
2021/04/27 02:42:47;;;;;;;4.25;3.25;;;14.40;99.90;;;;;;5067531;28;20024;-65
2021/04/27 02:45:13;;;;;;;4.07;2.95;;;14.30;99.90;;;;;;5068864;28;20476;-65
2021/04/27 02:47:39;;;;;;;3.85;2.88;;;14.30;99.90;;;;;;5068821;28;20643;-65
2021/04/27 02:50:05;;;;;;;3.53;2.78;;;14.30;99.90;;;;;;5068716;28;20024;-65
2021/04/27 02:52:31;;;;;;;6.88;4.10;;;14.20;99.90;;;;;;5068383;28;20029;-65
2021/04/27 02:54:56;;;;;;;5.20;3.75;;;14.10;99.90;;;;;;5068655;28;20039;-64
2021/04/27 02:57:23;;;;;;;4.38;3.25;;;14.00;99.90;;;;;;5068846;28;20396;-64
2021/04/27 02:59:49;;;;;;;4.88;3.55;;;14.00;99.90;;;;;;5069208;28;20043;-64
2021/04/27 03:02:14;;;;;;;7.93;4.15;;;14.00;99.90;;;;;;5069380;28;20020;-64
2021/04/27 03:04:40;;;;;;;5.20;4.00;;;14.00;99.90;;;;;;5068155;28;20021;-64
2021/04/27 03:07:07;;;;;;;5.03;3.72;;;13.90;99.90;;;;;;5068725;28;20024;-65
2021/04/27 03:09:32;;;;;;;5.35;4.07;;;14.00;99.90;;;;;;5067666;28;20082;-65
2021/04/27 03:11:58;;;;;;;6.40;3.55;;;13.90;99.90;;;;;;5068242;28;20020;-65
2021/04/27 03:14:25;;;;;;;5.18;3.53;;;13.90;99.90;;;;;;5068104;28;20021;-65
2021/04/27 03:16:51;;;;;;;5.63;3.58;;;13.90;99.90;;;;;;5068300;28;20017;-65
2021/04/27 03:19:16;;;;;;;5.00;3.20;;;13.90;99.90;;;;;;5068809;28;20029;-65
2021/04/27 03:21:43;;;;;;;4.15;2.90;;;14.00;99.90;;;;;;5067962;28;20453;-64
2021/04/27 03:24:09;;;;;;;4.00;2.65;;;13.90;99.90;;;;;;5067624;28;20025;-65
2021/04/27 03:26:35;;;;;;;3.72;2.53;;;13.80;99.90;;;;;;5068164;28;20032;-64
2021/04/27 03:29:00;;;;;;;3.25;2.72;;;14.00;99.90;;;;;;5068141;28;20052;-64
2021/04/27 03:31:26;;;;;;;3.92;2.55;;;14.00;99.90;;;;;;5067922;28;20028;-64
2021/04/27 03:33:52;;;;;;;3.65;2.90;;;14.10;99.90;;;;;;5067960;28;20059;-64
2021/04/27 03:36:18;;;;;;;4.07;3.15;;;14.10;99.90;;;;;;5068799;28;20025;-64
2021/04/27 03:38:43;;;;;;;3.35;2.63;;;14.20;99.90;;;;;;5067608;28;20043;-64
2021/04/27 03:41:09;;;;;;;4.57;2.63;;;14.50;99.90;;;;;;5068061;28;20036;-64
2021/04/27 03:43:35;;;;;;;3.95;2.50;;;14.60;99.90;;;;;;5067807;28;20399;-64
2021/04/27 03:46:00;;;;;;;4.00;2.78;;;14.70;99.90;;;;;;5067274;28;20025;-64
2021/04/27 03:48:27;;;;;;;4.57;3.03;;;14.70;99.90;;;;;;5067558;28;20034;-64
2021/04/27 03:50:54;;;;;;;6.53;3.35;;;14.70;99.90;;;;;;5068916;28;20032;-64
2021/04/27 03:53:20;;;;;;;4.05;2.67;;;14.70;99.90;;;;;;5068262;28;20035;-64
2021/04/27 03:55:46;;;;;;;5.28;3.17;;;14.70;99.90;;;;;;5069049;28;20032;-63
2021/04/27 03:58:12;;;;;;;4.20;3.25;;;14.70;99.90;;;;;;5067697;28;20029;-64
2021/04/27 04:00:38;;;;;;;3.88;3.10;;;14.70;99.90;;;;;;5066324;28;20117;-64
2021/04/27 04:03:04;;;;;;;5.22;3.60;;;14.70;99.90;;;;;;5068268;28;20024;-64
2021/04/27 04:05:30;;;;;;;4.15;3.10;;;14.70;99.90;;;;;;5066945;28;20031;-64
2021/04/27 04:07:55;;;;;;;4.15;3.30;;;14.80;99.90;;;;;;5067677;28;20024;-64
2021/04/27 04:10:21;;;;;;;3.97;3.20;;;14.90;99.90;;;;;;5066696;28;20127;-65
2021/04/27 04:12:47;;;;;;;4.55;3.05;;;14.90;99.90;;;;;;5067979;28;20028;-65
2021/04/27 04:15:15;;;;;;;3.85;3.10;;;14.90;99.90;;;;;;5065560;28;20036;-65
2021/04/27 04:17:42;;;;;;;3.85;3.05;;;14.90;99.90;;;;;;5066902;28;20044;-65
2021/04/27 04:20:26;;;;;;;4.43;3.40;;;14.70;99.90;;;;;;5066266;28;20124;-64
2021/04/27 04:22:52;;;;;;;4.30;3.40;;;14.70;99.90;;;;;;5066934;28;20028;-64
2021/04/27 04:25:19;;;;;;;4.82;3.40;;;14.70;99.90;;;;;;5067079;28;20028;-64
2021/04/27 04:27:46;;;;;;;5.63;3.65;;;14.70;99.90;;;;;;5067726;28;20053;-64
2021/04/27 04:30:24;;;;;;;5.82;3.22;;;14.70;99.90;;;;;;5066953;28;20040;-63
2021/04/27 04:32:51;;;;;;;6.90;3.97;;;14.60;99.90;;;;;;5066742;28;20021;-64
2021/04/27 04:35:19;;;;;;;4.28;3.13;;;14.60;99.90;;;;;;5060545;28;20066;-64
2021/04/27 04:37:45;;;;;;;4.07;3.33;;;14.60;99.90;;;;;;5065880;28;20024;-63
2021/04/27 04:40:15;;;;;;;4.80;3.30;;;14.50;99.90;;;;;;5067802;28;20071;-63
2021/04/27 04:42:42;;;;;;;4.28;3.28;;;14.40;99.90;;;;;;5068036;28;20031;-63
2021/04/27 04:45:09;;;;;;;5.00;3.40;;;14.40;99.90;;;;;;5067775;28;20027;-63
2021/04/27 04:47:35;;;;;;;4.72;3.17;;;14.40;99.90;;;;;;5067523;28;20032;-63
2021/04/27 04:50:04;;;;;;;3.63;2.92;;;14.40;99.90;;;;;;5067954;28;20394;-63
2021/04/27 04:52:30;;;;;;;5.50;3.67;;;14.50;99.90;;;;;;5067350;28;20028;-63
2021/04/27 04:54:56;;;;;;;6.50;3.28;;;14.40;99.90;;;;;;5067832;28;20738;-62
2021/04/27 04:57:21;;;;;;;4.50;3.33;;;14.40;99.90;;;;;;5067731;28;20024;-63
2021/04/27 04:59:48;;;;;;;4.15;3.08;;;14.40;99.90;;;;;;5066656;28;20031;-63
2021/04/27 05:02:13;;;;;;;3.25;2.75;;;14.40;99.90;;;;;;5067416;28;20024;-62
2021/04/27 05:04:39;;;;;;;3.72;3.25;;;14.30;99.90;;;;;;5067444;28;20554;-63
2021/04/27 05:07:09;;;;;;;4.30;3.33;;;14.30;99.90;;;;;;5067547;28;20075;-63
2021/04/27 05:09:35;;;;;;;5.93;3.50;;;14.30;99.90;;;;;;5067105;28;20028;-62
2021/04/27 05:12:02;;;;;;;4.90;3.35;;;14.30;99.90;;;;;;5067297;28;20024;-63
2021/04/27 05:14:30;;;;;;;4.72;3.45;;;14.30;99.90;;;;;;5066874;28;20027;-63
2021/04/27 05:16:59;;;;;;;3.95;3.10;;;14.30;99.90;;;;;;5067243;28;20025;-63
2021/04/27 05:19:25;;;;;;;4.32;3.30;;;14.30;99.90;;;;;;5067025;28;20024;-63
2021/04/27 05:21:51;;;;;;;5.30;3.92;;;14.20;99.90;;;;;;5067395;28;20108;-63
2021/04/27 05:24:17;;;;;;;4.88;3.53;;;14.30;99.90;;;;;;5067999;28;20112;-63
2021/04/27 05:26:42;;;;;;;5.88;3.85;;;14.30;99.90;;;;;;5066791;28;20077;-63
2021/04/27 05:29:09;;;;;;;5.72;3.30;;;14.30;99.90;;;;;;5067115;28;20024;-63
2021/04/27 05:31:35;;;;;;;5.03;3.92;;;14.30;99.90;;;;;;5066692;28;20036;-63
2021/04/27 05:34:01;;;;;;;4.47;3.42;;;14.30;99.90;;;;;;5067066;28;20020;-63
2021/04/27 05:36:27;;;;;;;6.43;3.88;;;14.30;99.90;;;;;;5066863;28;20522;-63
2021/04/27 05:38:53;;;;;;;5.18;3.70;;;14.30;99.90;;;;;;5067230;28;20071;-62
2021/04/27 05:41:18;;;;;;;6.25;3.28;;;14.30;99.90;;;;;;5067733;28;20186;-62
2021/04/27 05:43:44;;;;;;;5.55;3.53;;;14.30;99.90;;;;;;5066567;28;20021;-63
2021/04/27 05:46:10;;;;;;;4.35;3.28;;;14.30;99.90;;;;;;5066787;28;20115;-64
2021/04/27 05:48:36;;;;;;;3.85;3.30;;;14.30;99.90;;;;;;5066193;28;20028;-63
2021/04/27 05:51:01;;;;;;;5.05;3.05;;;14.30;99.90;;;;;;5066979;28;20028;-63
2021/04/27 05:53:27;;;;;;;4.05;2.85;;;14.20;99.90;;;;;;5066458;28;20437;-63
2021/04/27 05:55:53;;;;;;;3.53;2.88;;;14.30;99.90;;;;;;5067044;28;20031;-62
2021/04/27 05:58:18;;;;;;;4.07;2.80;;;14.30;99.90;;;;;;5067407;28;20533;-62
2021/04/27 06:00:44;;;;;;;4.22;2.88;;;14.30;99.90;;;;;;5066202;28;20024;-63
2021/04/27 06:03:10;;;;;;;3.45;2.97;;;14.40;99.90;;;;;;5066750;28;20032;-63
2021/04/27 06:05:35;;;;;;;4.75;3.05;;;14.40;99.90;;;;;;5066701;28;20028;-63
2021/04/27 06:08:01;;;;;;;4.63;3.10;;;14.30;99.90;;;;;;5066981;28;20048;-62
2021/04/27 06:10:27;;;;;;;3.13;2.83;;;14.30;99.90;;;;;;5066151;28;20429;-63
2021/04/27 06:12:52;;;;;;;5.40;3.20;;;14.40;99.90;;;;;;5066727;28;20037;-63
2021/04/27 06:15:18;;;;;;;4.53;3.38;;;14.40;99.90;;;;;;5067122;28;20032;-63
2021/04/27 06:17:45;;;;;;;5.65;3.08;;;14.40;99.90;;;;;;5066146;28;20529;-63
2021/04/27 06:20:14;;;;;;;5.38;3.17;;;14.30;99.90;;;;;;5066773;28;20059;-63
2021/04/27 06:22:39;;;;;;;3.78;3.03;;;14.40;99.90;;;;;;5066603;28;20017;-63
2021/04/27 06:25:08;;;;;;;4.93;3.75;;;14.40;99.90;;;;;;5066590;28;20494;-63
2021/04/27 06:27:34;;;;;;;4.68;3.42;;;14.40;99.90;;;;;;5066130;28;20433;-63
2021/04/27 06:30:00;;;;;;;3.78;3.30;;;14.40;99.90;;;;;;5065535;28;20044;-63
2021/04/27 06:32:27;;;;;;;3.90;3.10;;;14.40;99.90;;;;;;5063903;28;20024;-63
2021/04/27 06:34:54;;;;;;;8.10;4.57;;;14.50;99.90;;;;;;5066210;28;20032;-63
2021/04/27 06:37:20;;;;;;;4.68;3.35;;;14.40;99.90;;;;;;5066510;28;20055;-63
2021/04/27 06:39:46;;;;;;;4.13;3.30;;;14.30;99.90;;;;;;5066839;28;20032;-62
2021/04/27 06:42:12;;;;;;;3.85;2.90;;;14.40;99.90;;;;;;5066607;28;20371;-63
2021/04/27 06:44:38;;;;;;;5.53;3.60;;;14.30;99.90;;;;;;5065843;28;20020;-62
2021/04/27 06:47:06;;;;;;;4.35;3.20;;;14.40;99.90;;;;;;5066172;28;20082;-62
2021/04/27 06:49:33;;;;;;;4.75;3.45;;;14.40;99.90;;;;;;5066119;28;20025;-62
2021/04/27 06:51:59;;;;;;;5.82;3.70;;;14.40;99.90;;;;;;5066378;28;20055;-62
2021/04/27 06:54:25;;;;;;;6.22;4.10;;;14.50;99.90;;;;;;5065999;28;20025;-62
2021/04/27 06:56:50;;;;;;;4.05;3.40;;;14.50;99.90;;;;;;5066027;28;20066;-62
2021/04/27 06:59:19;;;;;;;4.75;3.60;;;14.40;99.90;;;;;;5067701;28;20023;-62
2021/04/27 07:01:46;;;;;;;5.25;3.20;;;14.40;99.90;;;;;;5070208;28;20029;-62
2021/04/27 07:04:12;;;;;;;7.88;3.00;;;14.40;99.90;;;;;;5069994;28;20108;-62
2021/04/27 07:06:37;;;;;;;5.40;3.35;;;14.40;99.90;;;;;;5069826;28;20507;-63
2021/04/27 07:09:03;;;;;;;4.38;3.30;;;14.50;99.90;;;;;;5069679;28;20029;-62
2021/04/27 07:11:31;;;;;;;5.85;3.25;;;14.50;99.90;;;;;;5069314;28;20060;-62
2021/04/27 07:13:57;;;;;;;3.70;3.30;;;14.60;99.90;;;;;;5069780;28;20028;-62
2021/04/27 07:16:23;;;;;;;5.47;3.60;;;14.50;99.90;;;;;;5068591;28;20478;-62
2021/04/27 07:18:48;;;;;;;3.97;3.50;;;14.60;99.90;;;;;;5070324;28;20047;-62
2021/04/27 07:21:16;;;;;;;6.75;3.30;;;14.70;99.90;;;;;;5069686;28;20032;-62
2021/04/27 07:23:41;;;;;;;4.53;3.22;;;14.60;99.90;;;;;;5069561;28;20024;-63
2021/04/27 07:26:08;;;;;;;4.85;3.10;;;14.50;99.90;;;;;;5067785;28;20032;-63
2021/04/27 07:28:34;;;;;;;5.60;3.03;;;14.40;99.90;;;;;;5065607;28;20490;-63
2021/04/27 07:30:59;;;;;;;4.35;3.17;;;14.60;99.90;;;;;;5067818;28;20040;-63
2021/04/27 07:33:25;;;;;;;4.15;2.90;;;14.70;99.90;;;;;;5067735;28;20024;-63
2021/04/27 07:35:51;;;;;;;4.20;2.65;;;14.70;99.90;;;;;;5067943;28;20059;-63
2021/04/27 07:38:17;;;;;;;3.67;2.30;;;14.80;99.90;;;;;;5068439;28;20035;-63
2021/04/27 07:40:43;;;;;;;5.63;2.03;;;14.70;99.90;;;;;;5067632;28;20036;-63
2021/04/27 07:43:10;;;;;;;3.03;1.83;;;14.60;99.90;;;;;;5067882;28;20411;-63
2021/04/27 07:45:35;;;;;;;3.33;2.03;;;14.70;99.90;;;;;;5067207;28;20028;-62
2021/04/27 07:48:04;;;;;;;2.05;1.63;;;14.50;99.90;;;;;;5067770;28;20524;-63
2021/04/27 07:50:30;;;;;;;1.83;1.63;;;14.50;99.90;;;;;;5067373;28;20032;-62
2021/04/27 07:52:56;;;;;;;4.85;2.47;;;14.50;99.90;;;;;;5067507;28;20518;-63
2021/04/27 07:55:23;;;;;;;3.05;1.20;;;14.50;99.90;;;;;;5067502;28;20499;-62
2021/04/27 07:57:50;;;;;;;3.67;1.90;;;14.70;99.90;;;;;;5068313;28;20028;-62
2021/04/27 08:00:16;;;;;;;3.15;2.22;;;14.40;99.90;;;;;;5067472;28;20028;-62
2021/04/27 08:02:42;;;;;;;4.40;2.53;;;14.30;99.90;;;;;;5067203;28;20272;-62
2021/04/27 08:05:09;;;;;;;3.72;2.15;;;14.40;99.90;;;;;;5067479;28;20505;-62
2021/04/27 08:07:36;;;;;;;4.55;1.98;;;14.40;99.90;;;;;;5067138;28;20138;-63
2021/04/27 08:10:05;;;;;;;4.43;2.25;;;14.60;99.90;;;;;;5066570;28;20048;-63
2021/04/27 08:12:30;;;;;;;2.83;1.52;;;14.60;99.90;;;;;;5066605;28;20479;-63
2021/04/27 08:14:56;;;;;;;2.85;1.92;;;14.80;99.90;;;;;;5067063;28;20029;-63
2021/04/27 08:17:22;;;;;;;4.38;2.40;;;14.90;99.90;;;;;;5066891;28;20033;-64
2021/04/27 08:19:49;;;;;;;4.00;2.72;;;14.90;99.90;;;;;;5067522;28;20503;-63
2021/04/27 08:22:15;;;;;;;4.10;2.13;;;15.00;99.90;;;;;;5067902;28;20395;-63
2021/04/27 08:24:44;;;;;;;3.38;2.10;;;15.10;99.90;;;;;;5066924;28;20074;-63
2021/04/27 08:27:14;;;;;;;5.00;1.90;;;15.10;99.90;;;;;;5067062;28;20036;-63
2021/04/27 08:29:41;;;;;;;2.50;1.75;;;15.30;99.90;;;;;;5066326;28;20086;-64
2021/04/27 08:32:07;;;;;;;1.75;1.50;;;15.50;99.90;;;;;;5066968;28;20047;-63
2021/04/27 08:34:33;;;;;;;2.45;1.80;;;15.60;99.90;;;;;;5066343;28;20029;-63
2021/04/27 08:36:59;;;;;;;3.05;1.70;;;15.50;99.90;;;;;;5066950;28;20027;-63
2021/04/27 08:39:25;;;;;;;3.25;1.42;;;15.30;99.90;;;;;;5066602;28;20406;-63
2021/04/27 08:41:52;;;;;;;2.10;1.52;;;15.60;99.90;;;;;;5066842;28;20020;-63
2021/04/27 08:44:19;;;;;;;2.67;1.58;;;15.70;99.90;;;;;;5067289;28;20031;-63
2021/04/27 08:46:45;;;;;;;4.60;2.28;;;15.50;99.90;;;;;;5066041;28;20031;-62
2021/04/27 08:49:11;;;;;;;5.38;1.80;;;15.40;99.90;;;;;;5066474;28;20020;-63
2021/04/27 08:51:37;;;;;;;2.90;1.77;;;15.30;99.90;;;;;;5066070;28;20044;-63
2021/04/27 08:54:06;;;;;;;3.42;1.58;;;15.20;99.90;;;;;;5066093;28;20060;-63
2021/04/27 08:56:32;;;;;;;1.75;1.50;;;15.40;99.90;;;;;;5066227;28;20064;-63
2021/04/27 08:58:59;;;;;;;2.08;1.80;;;15.60;99.90;;;;;;5066144;28;20036;-63
2021/04/27 09:01:27;;;;;;;2.53;1.50;;;15.80;99.90;;;;;;5066046;28;20024;-63
2021/04/27 09:03:57;;;;;;;1.52;1.30;;;15.90;99.90;;;;;;5066193;28;20037;-63
2021/04/27 09:06:23;;;;;;;2.72;1.55;;;16.10;99.90;;;;;;5065892;28;20046;-63
2021/04/27 09:08:50;;;;;;;2.03;1.30;;;16.20;99.90;;;;;;5066458;28;20024;-63
2021/04/27 09:11:33;;;;;;;2.78;1.25;;;16.10;99.90;;;;;;5066113;28;20028;-63
2021/04/27 09:14:15;;;;;;;1.50;1.40;;;16.20;99.90;;;;;;5065727;28;20112;-63
2021/04/27 09:16:54;;;;;;;2.97;1.92;;;16.10;99.90;;;;;;5065655;28;20031;-62
2021/04/27 09:19:34;;;;;;;2.10;1.50;;;16.00;99.90;;;;;;5065815;28;20024;-63
2021/04/27 09:22:03;;;;;;;2.45;1.73;;;16.10;99.90;;;;;;5065443;28;20057;-63
2021/04/27 09:24:33;;;;;;;1.98;1.30;;;16.10;99.90;;;;;;5065375;28;20032;-63
2021/04/27 09:26:59;;;;;;;1.65;1.13;;;16.20;99.90;;;;;;5065953;28;20020;-63
2021/04/27 09:29:30;;;;;;;2.50;1.50;;;16.40;99.90;;;;;;5065694;28;20025;-63
2021/04/27 09:31:55;;;;;;;2.85;1.40;;;16.40;99.90;;;;;;5066041;28;20102;-63
2021/04/27 09:34:31;;;;;;;1.52;1.30;;;16.40;99.90;;;;;;5065567;28;20502;-63
2021/04/27 09:37:00;;;;;;;3.85;2.30;;;16.50;99.90;;;;;;5065721;28;20031;-63
2021/04/27 09:39:37;;;;;;;2.30;1.95;;;16.20;99.90;;;;;;5065536;28;20104;-62
2021/04/27 09:42:13;;;;;;;3.75;2.47;;;16.10;99.90;;;;;;5065720;28;20029;-63
2021/04/27 09:44:40;;;;;;;2.55;1.70;;;16.20;99.90;;;;;;5065267;28;20024;-62
2021/04/27 09:47:21;;;;;;;2.70;1.63;;;16.50;99.90;;;;;;5065487;28;20206;-63
2021/04/27 09:50:04;;;;;;;2.05;1.50;;;16.60;99.90;;;;;;5066018;28;20024;-63
2021/04/27 09:52:40;;;;;;;2.08;1.75;;;16.80;99.90;;;;;;5065501;28;20021;-63
2021/04/27 09:55:13;;;;;;;2.72;1.67;;;16.80;99.90;;;;;;5065395;28;20033;-63
2021/04/27 09:57:51;;;;;;;3.08;2.35;;;16.70;99.90;;;;;;5065174;28;20048;-63
2021/04/27 10:00:27;;;;;;;2.38;1.70;;;16.60;99.90;;;;;;5066004;28;20107;-63
2021/04/27 10:02:54;;;;;;;5.10;2.13;;;16.80;99.90;;;;;;5065526;28;20023;-63
2021/04/27 10:05:20;;;;;;;4.55;2.85;;;16.70;99.90;;;;;;5065044;28;20074;-63
2021/04/27 10:07:47;;;;;;;2.65;1.92;;;16.80;99.90;;;;;;5066038;28;20074;-63
2021/04/27 10:10:14;;;;;;;3.28;1.90;;;17.10;99.90;;;;;;5064614;28;20040;-63
2021/04/27 10:12:41;;;;;;;2.45;2.05;;;17.00;99.90;;;;;;5064974;28;20403;-63
2021/04/27 10:15:09;;;;;;;2.50;2.03;;;16.90;99.90;;;;;;5064930;28;20107;-63
2021/04/27 10:17:36;;;;;;;4.10;2.15;;;17.10;99.90;;;;;;5064879;28;20406;-63
2021/04/27 10:20:08;;;;;;;3.17;2.30;;;17.20;99.90;;;;;;5065060;28;20299;-63
2021/04/27 10:22:36;;;;;;;7.80;3.45;;;17.20;99.90;;;;;;5065109;28;20020;-63
2021/04/27 10:25:03;;;;;;;3.92;2.35;;;17.10;99.90;;;;;;5064954;28;20016;-63
2021/04/27 10:27:29;;;;;;;5.22;2.50;;;17.40;99.90;;;;;;5065050;28;20016;-64
2021/04/27 10:29:57;;;;;;;2.58;2.13;;;17.40;99.90;;;;;;5064853;28;20036;-63
2021/04/27 10:32:25;;;;;;;2.08;1.67;;;17.70;99.90;;;;;;5064921;28;20020;-63
2021/04/27 10:35:00;;;;;;;4.35;2.58;;;17.90;99.90;;;;;;5067444;28;20028;-63
2021/04/27 10:37:28;;;;;;;2.83;2.00;;;17.70;99.70;;;;;;5068938;28;20021;-63
2021/04/27 10:39:55;;;;;;;4.28;1.75;;;17.70;99.90;;;;;;5068769;28;20221;-63
2021/04/27 10:42:27;;;;;;;1.90;1.73;;;17.80;99.60;;;;;;5068955;28;20031;-63
2021/04/27 10:44:58;;;;;;;4.30;2.15;;;17.80;98.60;;;;;;5068812;28;20503;-63
2021/04/27 10:47:26;;;;;;;3.88;2.60;;;17.60;98.90;;;;;;5068719;28;20517;-62
2021/04/27 10:49:56;;;;;;;2.05;1.85;;;17.70;98.80;;;;;;5069006;28;20035;-63
2021/04/27 10:52:34;;;;;;;2.03;1.67;;;17.80;98.70;;;;;;5068464;28;20107;-63
2021/04/27 10:55:26;;;;;;;3.67;2.08;;;18.10;99.00;;;;;;5068732;28;20032;-63
2021/04/27 10:57:57;;;;;;;2.05;1.42;;;18.00;98.20;;;;;;5068827;28;20048;-63
2021/04/27 11:00:43;;;;;;;2.30;1.33;;;18.20;98.30;;;;;;5068359;28;20051;-64
2021/04/27 11:03:23;;;;;;;3.55;1.63;;;18.30;98.20;;;;;;5069044;28;20024;-63
2021/04/27 11:06:04;;;;;;;3.40;1.90;;;18.50;98.30;;;;;;5069209;28;20132;-63
2021/04/27 11:08:51;;;;;;;3.22;1.90;;;18.60;97.90;;;;;;5068180;28;20026;-64
2021/04/27 11:11:19;;;;;;;2.28;1.50;;;18.50;98.00;;;;;;5068781;28;20044;-63
2021/04/27 11:13:46;;;;;;;3.97;1.95;;;18.50;98.30;;;;;;5068690;28;20099;-64
2021/04/27 11:16:26;;;;;;;2.72;1.80;;;18.50;98.00;;;;;;5068678;28;20032;-64
2021/04/27 11:19:08;;;;;;;2.03;1.63;;;18.60;97.90;;;;;;5068634;28;20032;-65
2021/04/27 11:21:34;;;;;;;3.05;2.22;;;18.80;97.50;;;;;;5066305;28;20051;-65
2021/04/27 11:24:02;;;;;;;2.53;1.63;;;18.80;97.20;;;;;;5069368;28;20467;-65
2021/04/27 11:26:34;;;;;;;1.55;1.23;;;19.00;97.50;;;;;;5069390;28;20023;-65
2021/04/27 11:29:21;;;;;;;2.00;1.55;;;19.20;97.00;;;;;;5069671;28;20043;-64
2021/04/27 11:31:56;;;;;;;3.13;2.03;;;19.40;96.50;;;;;;5070117;28;20024;-65
2021/04/27 11:34:23;;;;;;;2.17;1.27;;;19.30;96.90;;;;;;5069305;28;20028;-65
2021/04/27 11:36:50;;;;;;;2.60;2.20;;;19.60;96.60;;;;;;5068351;28;20028;-64
2021/04/27 11:39:20;;;;;;;3.17;1.90;;;19.50;95.60;;;;;;5069833;28;20080;-64
2021/04/27 11:42:00;;;;;;;2.03;1.45;;;19.60;96.00;;;;;;5066666;28;20063;-64
2021/04/27 11:44:32;;;;;;;3.40;1.65;;;19.80;96.00;;;;;;5067040;28;20032;-64
2021/04/27 11:47:07;;;;;;;2.92;1.90;;;19.90;95.40;;;;;;5068070;28;20027;-69
2021/04/27 11:50:05;;;;;;;4.40;2.13;;;20.10;95.80;;;;;;5066919;28;20050;-66
2021/04/27 11:52:52;;;;;;;2.47;1.80;;;20.10;94.80;;;;;;5066691;28;20495;-66
2021/04/27 11:55:22;;;;;;;2.67;1.92;;;20.30;95.00;;;;;;5068026;28;20113;-65
2021/04/27 11:57:58;;;;;;;3.25;2.25;;;20.50;94.60;;;;;;5067488;28;20028;-65
2021/04/27 12:00:52;;;;;;;2.78;1.90;;;20.50;94.00;;;;;;5066908;28;20027;-66
2021/04/27 12:03:44;;;;;;;3.33;2.08;;;20.70;94.40;;;;;;5067637;28;20063;-65
2021/04/27 12:06:15;;;;;;;2.13;1.63;;;20.50;93.50;;;;;;5066954;28;20044;-65
2021/04/27 12:08:52;;;;;;;2.53;1.60;;;20.80;93.30;;;;;;5066709;28;20100;-66
2021/04/27 12:11:29;;;;;;;2.92;1.80;;;20.70;93.00;;;;;;5066936;28;20090;-65
2021/04/27 12:13:58;;;;;;;2.33;1.80;;;20.80;92.50;;;;;;5066636;28;20020;-65
2021/04/27 12:16:32;;;;;;;4.32;1.90;;;20.80;92.90;;;;;;5066165;28;20028;-66
2021/04/27 12:19:04;;;;;;;2.30;1.73;;;21.00;92.80;;;;;;5066640;28;20059;-67
2021/04/27 12:21:36;;;;;;;2.50;1.60;;;21.00;92.60;;;;;;5066267;28;20035;-66
2021/04/27 12:24:11;;;;;;;2.08;1.55;;;21.20;92.80;;;;;;5066361;28;20109;-65
2021/04/27 12:26:43;;;;;;;3.13;1.88;;;21.10;91.60;;;;;;5066475;28;20025;-65
2021/04/27 12:29:10;;;;;;;2.05;1.48;;;21.00;91.60;;;;;;5066377;28;20980;-67
2021/04/27 12:31:37;;;;;;;2.88;1.77;;;21.10;92.30;;;;;;5066376;28;20116;-66
2021/04/27 12:34:07;;;;;;;2.65;1.80;;;21.10;91.60;;;;;;5065320;28;20517;-66
2021/04/27 12:36:47;;;;;;;2.20;1.48;;;21.30;91.90;;;;;;5066046;28;20035;-67
2021/04/27 12:39:21;;;;;;;2.83;1.80;;;21.60;91.40;;;;;;5066148;28;20032;-66
2021/04/27 12:41:47;;;;;;;2.55;2.05;;;21.40;91.50;;;;;;5066466;28;20028;-66
2021/04/27 12:44:28;;;;;;;3.88;2.30;;;21.40;91.10;;;;;;5066622;28;20024;-66
2021/04/27 12:46:54;;;;;;;3.83;2.70;;;21.40;91.00;;;;;;5065783;28;20017;-66
2021/04/27 12:49:33;;;;;;;2.70;2.10;;;21.40;90.70;;;;;;5066297;28;20024;-66
2021/04/27 12:52:07;;;;;;;4.30;2.20;;;21.40;90.80;;;;;;5065998;28;20024;-66
2021/04/27 12:54:35;;;;;;;2.10;1.55;;;21.70;90.80;;;;;;5065536;28;20151;-65
2021/04/27 12:57:16;;;;;;;3.78;2.35;;;22.00;90.60;;;;;;5065079;28;20032;-66